sensor_id;sensor_type;location;lat;lon;timestamp;P1;durP1;ratioP1;P2;durP2;ratioP2
52210;SDS011;38179;52.756;6.906;2024-03-06T00:01:37;15.63;;;13.07;;
52210;SDS011;38179;52.756;6.906;2024-03-06T00:04:03;16.50;;;12.85;;
52210;SDS011;38179;52.756;6.906;2024-03-06T00:06:29;19.30;;;13.63;;
52210;SDS011;38179;52.756;6.906;2024-03-06T00:08:55;18.08;;;13.43;;
52210;SDS011;38179;52.756;6.906;2024-03-06T00:11:21;24.08;;;13.20;;
52210;SDS011;38179;52.756;6.906;2024-03-06T00:13:47;18.92;;;13.43;;
52210;SDS011;38179;52.756;6.906;2024-03-06T00:16:13;16.63;;;13.60;;
52210;SDS011;38179;52.756;6.906;2024-03-06T00:18:39;20.73;;;13.02;;
52210;SDS011;38179;52.756;6.906;2024-03-06T00:21:05;20.52;;;13.48;;
52210;SDS011;38179;52.756;6.906;2024-03-06T00:23:31;17.20;;;13.00;;
52210;SDS011;38179;52.756;6.906;2024-03-06T00:25:57;17.70;;;12.98;;
52210;SDS011;38179;52.756;6.906;2024-03-06T00:28:23;17.23;;;12.70;;
52210;SDS011;38179;52.756;6.906;2024-03-06T00:30:49;22.20;;;13.82;;
52210;SDS011;38179;52.756;6.906;2024-03-06T00:33:15;18.65;;;12.43;;
52210;SDS011;38179;52.756;6.906;2024-03-06T00:35:40;18.02;;;13.43;;
52210;SDS011;38179;52.756;6.906;2024-03-06T00:38:06;17.05;;;12.10;;
52210;SDS011;38179;52.756;6.906;2024-03-06T00:40:32;19.60;;;12.95;;
52210;SDS011;38179;52.756;6.906;2024-03-06T00:42:58;20.23;;;13.20;;
52210;SDS011;38179;52.756;6.906;2024-03-06T00:45:24;20.52;;;12.93;;
52210;SDS011;38179;52.756;6.906;2024-03-06T00:47:49;18.42;;;12.13;;
52210;SDS011;38179;52.756;6.906;2024-03-06T00:50:15;16.40;;;12.75;;
52210;SDS011;38179;52.756;6.906;2024-03-06T00:52:43;19.85;;;12.85;;
52210;SDS011;38179;52.756;6.906;2024-03-06T00:55:09;20.20;;;13.70;;
52210;SDS011;38179;52.756;6.906;2024-03-06T00:57:35;17.20;;;12.50;;
52210;SDS011;38179;52.756;6.906;2024-03-06T01:00:01;17.77;;;13.32;;
52210;SDS011;38179;52.756;6.906;2024-03-06T01:02:35;20.67;;;13.75;;
52210;SDS011;38179;52.756;6.906;2024-03-06T01:05:01;18.85;;;13.05;;
52210;SDS011;38179;52.756;6.906;2024-03-06T01:07:29;18.83;;;12.82;;
52210;SDS011;38179;52.756;6.906;2024-03-06T01:09:55;18.42;;;12.57;;
52210;SDS011;38179;52.756;6.906;2024-03-06T01:12:24;18.30;;;13.38;;
52210;SDS011;38179;52.756;6.906;2024-03-06T01:14:50;17.42;;;12.60;;
52210;SDS011;38179;52.756;6.906;2024-03-06T01:17:16;19.55;;;13.52;;
52210;SDS011;38179;52.756;6.906;2024-03-06T01:19:42;17.05;;;13.30;;
52210;SDS011;38179;52.756;6.906;2024-03-06T01:22:11;16.08;;;13.02;;
52210;SDS011;38179;52.756;6.906;2024-03-06T01:24:40;20.50;;;12.50;;
52210;SDS011;38179;52.756;6.906;2024-03-06T01:27:06;19.50;;;13.40;;
52210;SDS011;38179;52.756;6.906;2024-03-06T01:29:32;17.80;;;13.02;;
52210;SDS011;38179;52.756;6.906;2024-03-06T01:31:58;19.30;;;13.77;;
52210;SDS011;38179;52.756;6.906;2024-03-06T01:34:24;17.50;;;13.05;;
52210;SDS011;38179;52.756;6.906;2024-03-06T01:36:51;16.73;;;13.27;;
52210;SDS011;38179;52.756;6.906;2024-03-06T01:39:19;22.80;;;12.60;;
52210;SDS011;38179;52.756;6.906;2024-03-06T01:41:45;17.90;;;12.95;;
52210;SDS011;38179;52.756;6.906;2024-03-06T01:44:15;22.65;;;13.05;;
52210;SDS011;38179;52.756;6.906;2024-03-06T01:46:41;20.52;;;13.38;;
52210;SDS011;38179;52.756;6.906;2024-03-06T01:49:07;19.65;;;13.13;;
52210;SDS011;38179;52.756;6.906;2024-03-06T01:51:34;19.48;;;12.27;;
52210;SDS011;38179;52.756;6.906;2024-03-06T01:54:00;22.98;;;13.02;;
52210;SDS011;38179;52.756;6.906;2024-03-06T01:56:29;19.10;;;12.95;;
52210;SDS011;38179;52.756;6.906;2024-03-06T01:58:56;17.70;;;12.75;;
52210;SDS011;38179;52.756;6.906;2024-03-06T02:01:23;18.55;;;13.45;;
52210;SDS011;38179;52.756;6.906;2024-03-06T02:03:49;19.38;;;12.98;;
52210;SDS011;38179;52.756;6.906;2024-03-06T02:06:17;17.42;;;12.77;;
52210;SDS011;38179;52.756;6.906;2024-03-06T02:08:47;19.58;;;13.35;;
52210;SDS011;38179;52.756;6.906;2024-03-06T02:11:13;21.20;;;13.00;;
52210;SDS011;38179;52.756;6.906;2024-03-06T02:13:40;19.02;;;12.75;;
52210;SDS011;38179;52.756;6.906;2024-03-06T02:16:06;22.73;;;13.65;;
52210;SDS011;38179;52.756;6.906;2024-03-06T02:18:32;20.15;;;14.25;;
52210;SDS011;38179;52.756;6.906;2024-03-06T02:20:58;21.08;;;13.30;;
52210;SDS011;38179;52.756;6.906;2024-03-06T02:23:24;18.15;;;13.40;;
52210;SDS011;38179;52.756;6.906;2024-03-06T02:25:50;21.65;;;13.95;;
52210;SDS011;38179;52.756;6.906;2024-03-06T02:28:16;16.13;;;12.40;;
52210;SDS011;38179;52.756;6.906;2024-03-06T02:30:42;20.92;;;13.18;;
52210;SDS011;38179;52.756;6.906;2024-03-06T02:33:08;16.92;;;13.52;;
52210;SDS011;38179;52.756;6.906;2024-03-06T02:35:36;19.45;;;13.57;;
52210;SDS011;38179;52.756;6.906;2024-03-06T02:38:03;18.45;;;13.32;;
52210;SDS011;38179;52.756;6.906;2024-03-06T02:40:30;17.10;;;13.63;;
52210;SDS011;38179;52.756;6.906;2024-03-06T02:42:56;17.67;;;13.43;;
52210;SDS011;38179;52.756;6.906;2024-03-06T02:45:21;19.70;;;13.75;;
52210;SDS011;38179;52.756;6.906;2024-03-06T02:47:47;28.50;;;13.52;;
52210;SDS011;38179;52.756;6.906;2024-03-06T02:50:13;19.30;;;13.18;;
52210;SDS011;38179;52.756;6.906;2024-03-06T02:52:40;17.45;;;13.55;;
52210;SDS011;38179;52.756;6.906;2024-03-06T02:55:06;19.60;;;13.02;;
52210;SDS011;38179;52.756;6.906;2024-03-06T02:57:32;18.35;;;13.75;;
52210;SDS011;38179;52.756;6.906;2024-03-06T02:59:58;22.55;;;14.27;;
52210;SDS011;38179;52.756;6.906;2024-03-06T03:02:24;18.83;;;14.43;;
52210;SDS011;38179;52.756;6.906;2024-03-06T03:04:50;17.70;;;13.00;;
52210;SDS011;38179;52.756;6.906;2024-03-06T03:07:20;18.20;;;13.93;;
52210;SDS011;38179;52.756;6.906;2024-03-06T03:09:46;20.48;;;13.65;;
52210;SDS011;38179;52.756;6.906;2024-03-06T03:12:12;17.30;;;13.52;;
52210;SDS011;38179;52.756;6.906;2024-03-06T03:14:41;26.98;;;14.38;;
52210;SDS011;38179;52.756;6.906;2024-03-06T03:17:07;18.75;;;13.48;;
52210;SDS011;38179;52.756;6.906;2024-03-06T03:19:33;18.02;;;13.15;;
52210;SDS011;38179;52.756;6.906;2024-03-06T03:22:00;20.00;;;14.18;;
52210;SDS011;38179;52.756;6.906;2024-03-06T03:24:25;20.92;;;13.82;;
52210;SDS011;38179;52.756;6.906;2024-03-06T03:26:52;21.10;;;14.73;;
52210;SDS011;38179;52.756;6.906;2024-03-06T03:29:18;25.85;;;14.57;;
52210;SDS011;38179;52.756;6.906;2024-03-06T03:31:43;18.35;;;13.75;;
52210;SDS011;38179;52.756;6.906;2024-03-06T03:34:09;18.40;;;13.80;;
52210;SDS011;38179;52.756;6.906;2024-03-06T03:36:41;18.05;;;13.57;;
52210;SDS011;38179;52.756;6.906;2024-03-06T03:39:08;23.13;;;15.32;;
52210;SDS011;38179;52.756;6.906;2024-03-06T03:41:44;20.00;;;14.57;;
52210;SDS011;38179;52.756;6.906;2024-03-06T03:44:11;19.88;;;14.55;;
52210;SDS011;38179;52.756;6.906;2024-03-06T03:46:41;20.90;;;14.52;;
52210;SDS011;38179;52.756;6.906;2024-03-06T03:49:07;18.05;;;13.90;;
52210;SDS011;38179;52.756;6.906;2024-03-06T03:51:34;19.23;;;12.82;;
52210;SDS011;38179;52.756;6.906;2024-03-06T03:54:03;21.50;;;14.80;;
52210;SDS011;38179;52.756;6.906;2024-03-06T03:56:30;22.25;;;14.98;;
52210;SDS011;38179;52.756;6.906;2024-03-06T03:58:56;20.42;;;14.75;;
52210;SDS011;38179;52.756;6.906;2024-03-06T04:01:23;23.35;;;14.52;;
52210;SDS011;38179;52.756;6.906;2024-03-06T04:03:49;20.20;;;14.98;;
52210;SDS011;38179;52.756;6.906;2024-03-06T04:06:16;19.67;;;15.40;;
52210;SDS011;38179;52.756;6.906;2024-03-06T04:08:41;22.00;;;14.82;;
52210;SDS011;38179;52.756;6.906;2024-03-06T04:11:07;20.05;;;15.07;;
52210;SDS011;38179;52.756;6.906;2024-03-06T04:13:36;21.85;;;14.60;;
52210;SDS011;38179;52.756;6.906;2024-03-06T04:18:29;20.70;;;14.50;;
52210;SDS011;38179;52.756;6.906;2024-03-06T04:21:42;21.75;;;14.52;;
52210;SDS011;38179;52.756;6.906;2024-03-06T04:24:08;25.65;;;15.73;;
52210;SDS011;38179;52.756;6.906;2024-03-06T04:26:33;21.17;;;15.13;;
52210;SDS011;38179;52.756;6.906;2024-03-06T04:29:05;22.50;;;15.15;;
52210;SDS011;38179;52.756;6.906;2024-03-06T04:31:31;22.73;;;14.65;;
52210;SDS011;38179;52.756;6.906;2024-03-06T04:33:56;20.48;;;15.18;;
52210;SDS011;38179;52.756;6.906;2024-03-06T04:36:22;22.50;;;15.13;;
52210;SDS011;38179;52.756;6.906;2024-03-06T04:38:48;28.20;;;15.45;;
52210;SDS011;38179;52.756;6.906;2024-03-06T04:41:13;25.13;;;15.60;;
52210;SDS011;38179;52.756;6.906;2024-03-06T04:43:39;23.65;;;16.77;;
52210;SDS011;38179;52.756;6.906;2024-03-06T04:46:06;19.92;;;14.10;;
52210;SDS011;38179;52.756;6.906;2024-03-06T04:48:38;19.20;;;15.52;;
52210;SDS011;38179;52.756;6.906;2024-03-06T04:51:04;21.27;;;15.65;;
52210;SDS011;38179;52.756;6.906;2024-03-06T04:53:30;24.58;;;15.73;;
52210;SDS011;38179;52.756;6.906;2024-03-06T04:55:55;21.35;;;15.70;;
52210;SDS011;38179;52.756;6.906;2024-03-06T04:58:22;22.13;;;14.90;;
52210;SDS011;38179;52.756;6.906;2024-03-06T05:00:48;21.15;;;16.10;;
52210;SDS011;38179;52.756;6.906;2024-03-06T05:03:13;21.13;;;16.15;;
52210;SDS011;38179;52.756;6.906;2024-03-06T05:05:40;22.40;;;15.93;;
52210;SDS011;38179;52.756;6.906;2024-03-06T05:08:06;23.42;;;16.30;;
52210;SDS011;38179;52.756;6.906;2024-03-06T05:10:32;26.42;;;16.67;;
52210;SDS011;38179;52.756;6.906;2024-03-06T05:12:57;23.30;;;14.73;;
52210;SDS011;38179;52.756;6.906;2024-03-06T05:15:23;26.38;;;16.30;;
52210;SDS011;38179;52.756;6.906;2024-03-06T05:17:49;22.35;;;17.20;;
52210;SDS011;38179;52.756;6.906;2024-03-06T05:20:14;23.83;;;16.77;;
52210;SDS011;38179;52.756;6.906;2024-03-06T05:22:41;21.67;;;15.88;;
52210;SDS011;38179;52.756;6.906;2024-03-06T05:25:07;25.27;;;16.52;;
52210;SDS011;38179;52.756;6.906;2024-03-06T05:27:33;25.42;;;16.90;;
52210;SDS011;38179;52.756;6.906;2024-03-06T05:29:59;24.02;;;16.48;;
52210;SDS011;38179;52.756;6.906;2024-03-06T05:32:25;24.65;;;17.17;;
52210;SDS011;38179;52.756;6.906;2024-03-06T05:34:50;22.75;;;16.75;;
52210;SDS011;38179;52.756;6.906;2024-03-06T05:37:16;21.45;;;17.13;;
52210;SDS011;38179;52.756;6.906;2024-03-06T05:39:42;25.80;;;15.88;;
52210;SDS011;38179;52.756;6.906;2024-03-06T05:42:08;20.90;;;16.67;;
52210;SDS011;38179;52.756;6.906;2024-03-06T05:44:34;25.70;;;17.08;;
52210;SDS011;38179;52.756;6.906;2024-03-06T05:47:00;24.48;;;16.13;;
52210;SDS011;38179;52.756;6.906;2024-03-06T05:49:26;22.35;;;16.92;;
52210;SDS011;38179;52.756;6.906;2024-03-06T05:51:53;23.83;;;16.50;;
52210;SDS011;38179;52.756;6.906;2024-03-06T05:54:19;22.15;;;15.57;;
52210;SDS011;38179;52.756;6.906;2024-03-06T05:56:47;21.63;;;16.25;;
52210;SDS011;38179;52.756;6.906;2024-03-06T05:59:14;23.17;;;15.93;;
52210;SDS011;38179;52.756;6.906;2024-03-06T06:01:41;21.92;;;15.45;;
52210;SDS011;38179;52.756;6.906;2024-03-06T06:04:08;19.80;;;15.25;;
52210;SDS011;38179;52.756;6.906;2024-03-06T06:09:02;26.30;;;16.10;;
52210;SDS011;38179;52.756;6.906;2024-03-06T06:11:31;24.48;;;15.68;;
52210;SDS011;38179;52.756;6.906;2024-03-06T06:13:58;25.38;;;14.70;;
52210;SDS011;38179;52.756;6.906;2024-03-06T06:16:24;21.05;;;15.48;;
52210;SDS011;38179;52.756;6.906;2024-03-06T06:18:50;20.55;;;15.73;;
52210;SDS011;38179;52.756;6.906;2024-03-06T06:21:15;20.95;;;14.55;;
52210;SDS011;38179;52.756;6.906;2024-03-06T06:23:41;21.95;;;14.70;;
52210;SDS011;38179;52.756;6.906;2024-03-06T06:26:08;24.75;;;15.57;;
52210;SDS011;38179;52.756;6.906;2024-03-06T06:28:35;22.30;;;15.25;;
52210;SDS011;38179;52.756;6.906;2024-03-06T06:31:02;21.73;;;15.38;;
52210;SDS011;38179;52.756;6.906;2024-03-06T06:33:29;23.25;;;15.20;;
52210;SDS011;38179;52.756;6.906;2024-03-06T06:35:55;20.65;;;15.57;;
52210;SDS011;38179;52.756;6.906;2024-03-06T06:38:21;20.67;;;16.30;;
52210;SDS011;38179;52.756;6.906;2024-03-06T06:40:47;22.75;;;16.83;;
52210;SDS011;38179;52.756;6.906;2024-03-06T06:43:13;22.90;;;16.08;;
52210;SDS011;38179;52.756;6.906;2024-03-06T06:45:38;25.45;;;16.52;;
52210;SDS011;38179;52.756;6.906;2024-03-06T06:48:04;21.88;;;16.10;;
52210;SDS011;38179;52.756;6.906;2024-03-06T06:50:30;24.67;;;16.60;;
52210;SDS011;38179;52.756;6.906;2024-03-06T06:52:58;23.90;;;16.35;;
52210;SDS011;38179;52.756;6.906;2024-03-06T06:55:24;22.73;;;17.00;;
52210;SDS011;38179;52.756;6.906;2024-03-06T06:57:50;21.80;;;17.15;;
52210;SDS011;38179;52.756;6.906;2024-03-06T07:00:16;25.67;;;16.58;;
52210;SDS011;38179;52.756;6.906;2024-03-06T07:02:43;24.42;;;17.27;;
52210;SDS011;38179;52.756;6.906;2024-03-06T07:05:10;22.90;;;16.90;;
52210;SDS011;38179;52.756;6.906;2024-03-06T07:07:36;23.02;;;17.17;;
52210;SDS011;38179;52.756;6.906;2024-03-06T07:10:03;23.20;;;16.77;;
52210;SDS011;38179;52.756;6.906;2024-03-06T07:12:29;23.95;;;16.52;;
52210;SDS011;38179;52.756;6.906;2024-03-06T07:14:55;25.83;;;16.85;;
52210;SDS011;38179;52.756;6.906;2024-03-06T07:17:21;22.10;;;16.50;;
52210;SDS011;38179;52.756;6.906;2024-03-06T07:19:47;22.33;;;16.67;;
52210;SDS011;38179;52.756;6.906;2024-03-06T07:22:13;24.38;;;17.48;;
52210;SDS011;38179;52.756;6.906;2024-03-06T07:24:42;25.80;;;17.60;;
52210;SDS011;38179;52.756;6.906;2024-03-06T07:27:08;26.83;;;18.15;;
52210;SDS011;38179;52.756;6.906;2024-03-06T07:29:34;29.15;;;17.48;;
52210;SDS011;38179;52.756;6.906;2024-03-06T07:32:01;28.42;;;17.40;;
52210;SDS011;38179;52.756;6.906;2024-03-06T07:34:27;26.52;;;18.45;;
52210;SDS011;38179;52.756;6.906;2024-03-06T07:36:52;28.55;;;18.13;;
52210;SDS011;38179;52.756;6.906;2024-03-06T07:39:21;26.02;;;18.35;;
52210;SDS011;38179;52.756;6.906;2024-03-06T07:41:47;30.10;;;17.52;;
52210;SDS011;38179;52.756;6.906;2024-03-06T07:44:13;29.30;;;18.10;;
52210;SDS011;38179;52.756;6.906;2024-03-06T07:46:39;25.40;;;18.23;;
52210;SDS011;38179;52.756;6.906;2024-03-06T07:49:04;27.10;;;18.13;;
52210;SDS011;38179;52.756;6.906;2024-03-06T07:51:30;23.52;;;17.65;;
52210;SDS011;38179;52.756;6.906;2024-03-06T07:53:57;22.95;;;18.83;;
52210;SDS011;38179;52.756;6.906;2024-03-06T07:56:23;28.40;;;18.77;;
52210;SDS011;38179;52.756;6.906;2024-03-06T07:58:53;27.10;;;18.50;;
52210;SDS011;38179;52.756;6.906;2024-03-06T08:01:19;26.05;;;17.10;;
52210;SDS011;38179;52.756;6.906;2024-03-06T08:03:46;26.23;;;18.83;;
52210;SDS011;38179;52.756;6.906;2024-03-06T08:06:12;26.88;;;18.33;;
52210;SDS011;38179;52.756;6.906;2024-03-06T08:08:40;25.23;;;18.40;;
52210;SDS011;38179;52.756;6.906;2024-03-06T08:11:06;26.73;;;18.33;;
52210;SDS011;38179;52.756;6.906;2024-03-06T08:13:32;25.67;;;18.60;;
52210;SDS011;38179;52.756;6.906;2024-03-06T08:15:58;25.33;;;19.25;;
52210;SDS011;38179;52.756;6.906;2024-03-06T08:18:23;23.63;;;19.02;;
52210;SDS011;38179;52.756;6.906;2024-03-06T08:20:49;24.27;;;18.60;;
52210;SDS011;38179;52.756;6.906;2024-03-06T08:23:15;23.50;;;18.00;;
52210;SDS011;38179;52.756;6.906;2024-03-06T08:25:40;27.02;;;18.77;;
52210;SDS011;38179;52.756;6.906;2024-03-06T08:28:06;27.58;;;18.73;;
52210;SDS011;38179;52.756;6.906;2024-03-06T08:30:32;26.85;;;18.48;;
52210;SDS011;38179;52.756;6.906;2024-03-06T08:32:58;26.42;;;19.55;;
52210;SDS011;38179;52.756;6.906;2024-03-06T08:35:24;24.98;;;17.98;;
52210;SDS011;38179;52.756;6.906;2024-03-06T08:37:50;28.65;;;18.45;;
52210;SDS011;38179;52.756;6.906;2024-03-06T08:40:16;26.67;;;19.35;;
52210;SDS011;38179;52.756;6.906;2024-03-06T08:42:49;32.42;;;19.52;;
52210;SDS011;38179;52.756;6.906;2024-03-06T08:45:18;27.38;;;19.88;;
52210;SDS011;38179;52.756;6.906;2024-03-06T08:47:44;27.35;;;19.88;;
52210;SDS011;38179;52.756;6.906;2024-03-06T08:50:11;27.63;;;19.27;;
52210;SDS011;38179;52.756;6.906;2024-03-06T08:52:37;28.25;;;18.63;;
52210;SDS011;38179;52.756;6.906;2024-03-06T08:55:04;30.95;;;19.98;;
52210;SDS011;38179;52.756;6.906;2024-03-06T08:57:31;26.30;;;19.45;;
52210;SDS011;38179;52.756;6.906;2024-03-06T08:59:58;25.67;;;19.77;;
52210;SDS011;38179;52.756;6.906;2024-03-06T09:02:25;36.33;;;20.38;;
52210;SDS011;38179;52.756;6.906;2024-03-06T09:04:51;31.52;;;21.13;;
52210;SDS011;38179;52.756;6.906;2024-03-06T09:07:17;27.73;;;21.05;;
52210;SDS011;38179;52.756;6.906;2024-03-06T09:09:44;28.75;;;20.63;;
52210;SDS011;38179;52.756;6.906;2024-03-06T09:12:10;28.10;;;20.38;;
52210;SDS011;38179;52.756;6.906;2024-03-06T09:14:36;33.05;;;20.95;;
52210;SDS011;38179;52.756;6.906;2024-03-06T09:17:03;29.45;;;20.77;;
52210;SDS011;38179;52.756;6.906;2024-03-06T09:19:30;28.70;;;21.55;;
52210;SDS011;38179;52.756;6.906;2024-03-06T09:21:57;28.55;;;21.92;;
52210;SDS011;38179;52.756;6.906;2024-03-06T09:24:24;29.40;;;20.08;;
52210;SDS011;38179;52.756;6.906;2024-03-06T09:26:50;33.30;;;22.20;;
52210;SDS011;38179;52.756;6.906;2024-03-06T09:29:17;30.67;;;22.50;;
52210;SDS011;38179;52.756;6.906;2024-03-06T09:31:43;30.27;;;21.58;;
52210;SDS011;38179;52.756;6.906;2024-03-06T09:34:10;31.42;;;20.38;;
52210;SDS011;38179;52.756;6.906;2024-03-06T09:36:47;29.73;;;22.33;;
52210;SDS011;38179;52.756;6.906;2024-03-06T09:39:14;34.63;;;21.83;;
52210;SDS011;38179;52.756;6.906;2024-03-06T09:41:48;35.58;;;22.45;;
52210;SDS011;38179;52.756;6.906;2024-03-06T09:44:17;31.08;;;21.85;;
52210;SDS011;38179;52.756;6.906;2024-03-06T09:46:43;31.10;;;22.27;;
52210;SDS011;38179;52.756;6.906;2024-03-06T09:49:11;34.47;;;23.30;;
52210;SDS011;38179;52.756;6.906;2024-03-06T09:51:39;32.08;;;23.13;;
52210;SDS011;38179;52.756;6.906;2024-03-06T09:54:15;30.33;;;22.85;;
52210;SDS011;38179;52.756;6.906;2024-03-06T09:56:42;30.65;;;22.48;;
52210;SDS011;38179;52.756;6.906;2024-03-06T09:59:09;34.25;;;23.35;;
52210;SDS011;38179;52.756;6.906;2024-03-06T10:01:36;32.80;;;22.13;;
52210;SDS011;38179;52.756;6.906;2024-03-06T10:07:06;37.08;;;22.58;;
52210;SDS011;38179;52.756;6.906;2024-03-06T10:09:33;29.80;;;21.73;;
52210;SDS011;38179;52.756;6.906;2024-03-06T10:11:59;38.28;;;23.20;;
52210;SDS011;38179;52.756;6.906;2024-03-06T10:14:25;34.17;;;23.20;;
52210;SDS011;38179;52.756;6.906;2024-03-06T10:16:54;35.85;;;23.27;;
52210;SDS011;38179;52.756;6.906;2024-03-06T10:19:22;34.95;;;22.50;;
52210;SDS011;38179;52.756;6.906;2024-03-06T10:21:49;32.20;;;22.85;;
52210;SDS011;38179;52.756;6.906;2024-03-06T10:24:20;34.05;;;22.65;;
52210;SDS011;38179;52.756;6.906;2024-03-06T10:26:48;32.70;;;22.83;;
52210;SDS011;38179;52.756;6.906;2024-03-06T10:29:17;36.95;;;22.98;;
52210;SDS011;38179;52.756;6.906;2024-03-06T10:31:53;35.88;;;21.67;;
52210;SDS011;38179;52.756;6.906;2024-03-06T10:34:20;31.55;;;22.67;;
52210;SDS011;38179;52.756;6.906;2024-03-06T10:37:04;34.00;;;23.25;;
52210;SDS011;38179;52.756;6.906;2024-03-06T10:39:32;34.03;;;24.02;;
52210;SDS011;38179;52.756;6.906;2024-03-06T10:42:03;33.92;;;23.08;;
52210;SDS011;38179;52.756;6.906;2024-03-06T10:44:32;34.13;;;24.35;;
52210;SDS011;38179;52.756;6.906;2024-03-06T10:47:03;36.42;;;24.73;;
52210;SDS011;38179;52.756;6.906;2024-03-06T10:49:31;36.92;;;26.02;;
52210;SDS011;38179;52.756;6.906;2024-03-06T10:52:05;36.40;;;25.48;;
52210;SDS011;38179;52.756;6.906;2024-03-06T10:54:32;38.50;;;25.17;;
52210;SDS011;38179;52.756;6.906;2024-03-06T10:57:00;36.30;;;25.40;;
52210;SDS011;38179;52.756;6.906;2024-03-06T10:59:27;37.83;;;25.52;;
52210;SDS011;38179;52.756;6.906;2024-03-06T11:01:57;38.88;;;27.00;;
52210;SDS011;38179;52.756;6.906;2024-03-06T11:04:27;42.20;;;26.35;;
52210;SDS011;38179;52.756;6.906;2024-03-06T11:06:58;40.50;;;25.63;;
52210;SDS011;38179;52.756;6.906;2024-03-06T11:09:25;42.33;;;26.35;;
52210;SDS011;38179;52.756;6.906;2024-03-06T11:11:52;37.42;;;26.40;;
52210;SDS011;38179;52.756;6.906;2024-03-06T11:14:22;41.00;;;25.42;;
52210;SDS011;38179;52.756;6.906;2024-03-06T11:17:31;39.08;;;26.08;;
52210;SDS011;38179;52.756;6.906;2024-03-06T11:36:19;40.60;;;26.80;;
52210;SDS011;38179;52.756;6.906;2024-03-06T11:38:59;35.05;;;25.38;;
52210;SDS011;38179;52.756;6.906;2024-03-06T11:41:52;38.80;;;26.83;;
52210;SDS011;38179;52.756;6.906;2024-03-06T11:44:21;38.60;;;26.27;;
52210;SDS011;38179;52.756;6.906;2024-03-06T11:47:09;36.90;;;25.63;;
52210;SDS011;38179;52.756;6.906;2024-03-06T11:49:34;40.65;;;27.23;;
52210;SDS011;38179;52.756;6.906;2024-03-06T11:52:02;40.40;;;24.85;;
52210;SDS011;38179;52.756;6.906;2024-03-06T11:54:36;42.53;;;27.00;;
52210;SDS011;38179;52.756;6.906;2024-03-06T11:57:03;35.17;;;25.35;;
52210;SDS011;38179;52.756;6.906;2024-03-06T12:02:05;36.33;;;25.27;;
52210;SDS011;38179;52.756;6.906;2024-03-06T12:04:33;37.15;;;26.58;;
52210;SDS011;38179;52.756;6.906;2024-03-06T12:07:02;33.88;;;25.40;;
52210;SDS011;38179;52.756;6.906;2024-03-06T12:09:34;37.25;;;25.77;;
52210;SDS011;38179;52.756;6.906;2024-03-06T12:12:01;43.92;;;28.20;;
52210;SDS011;38179;52.756;6.906;2024-03-06T12:14:28;56.03;;;35.03;;
52210;SDS011;38179;52.756;6.906;2024-03-06T12:16:55;45.70;;;28.65;;
52210;SDS011;38179;52.756;6.906;2024-03-06T12:19:26;42.88;;;30.65;;
52210;SDS011;38179;52.756;6.906;2024-03-06T12:21:59;36.40;;;26.17;;
52210;SDS011;38179;52.756;6.906;2024-03-06T12:24:26;32.70;;;25.55;;
52210;SDS011;38179;52.756;6.906;2024-03-06T12:26:59;39.22;;;26.67;;
52210;SDS011;38179;52.756;6.906;2024-03-06T12:29:28;36.42;;;25.92;;
52210;SDS011;38179;52.756;6.906;2024-03-06T12:31:57;42.60;;;27.35;;
52210;SDS011;38179;52.756;6.906;2024-03-06T12:34:27;38.30;;;27.30;;
52210;SDS011;38179;52.756;6.906;2024-03-06T12:36:55;37.50;;;28.25;;
52210;SDS011;38179;52.756;6.906;2024-03-06T12:39:23;34.97;;;26.17;;
52210;SDS011;38179;52.756;6.906;2024-03-06T12:41:52;37.10;;;27.48;;
52210;SDS011;38179;52.756;6.906;2024-03-06T12:44:21;42.70;;;26.77;;
52210;SDS011;38179;52.756;6.906;2024-03-06T12:46:47;35.45;;;26.10;;
52210;SDS011;38179;52.756;6.906;2024-03-06T12:49:13;37.53;;;27.80;;
52210;SDS011;38179;52.756;6.906;2024-03-06T12:51:39;37.25;;;25.45;;
52210;SDS011;38179;52.756;6.906;2024-03-06T12:54:05;37.30;;;25.45;;
52210;SDS011;38179;52.756;6.906;2024-03-06T12:56:31;38.97;;;27.52;;
52210;SDS011;38179;52.756;6.906;2024-03-06T12:58:56;33.83;;;24.80;;
52210;SDS011;38179;52.756;6.906;2024-03-06T13:01:22;38.60;;;25.60;;
52210;SDS011;38179;52.756;6.906;2024-03-06T13:03:48;38.45;;;26.27;;
52210;SDS011;38179;52.756;6.906;2024-03-06T13:06:14;35.92;;;26.75;;
52210;SDS011;38179;52.756;6.906;2024-03-06T13:08:40;38.63;;;26.27;;
52210;SDS011;38179;52.756;6.906;2024-03-06T13:11:05;39.38;;;25.83;;
52210;SDS011;38179;52.756;6.906;2024-03-06T13:13:31;36.40;;;25.73;;
52210;SDS011;38179;52.756;6.906;2024-03-06T13:15:59;33.78;;;25.63;;
52210;SDS011;38179;52.756;6.906;2024-03-06T13:18:25;36.05;;;26.52;;
52210;SDS011;38179;52.756;6.906;2024-03-06T13:20:51;37.63;;;24.50;;
52210;SDS011;38179;52.756;6.906;2024-03-06T13:23:17;37.08;;;26.33;;
52210;SDS011;38179;52.756;6.906;2024-03-06T13:25:43;35.08;;;25.95;;
52210;SDS011;38179;52.756;6.906;2024-03-06T13:28:10;36.45;;;27.48;;
52210;SDS011;38179;52.756;6.906;2024-03-06T13:30:36;32.80;;;25.52;;
52210;SDS011;38179;52.756;6.906;2024-03-06T13:33:04;35.30;;;26.05;;
52210;SDS011;38179;52.756;6.906;2024-03-06T13:35:30;38.67;;;26.48;;
52210;SDS011;38179;52.756;6.906;2024-03-06T13:37:56;34.75;;;26.52;;
52210;SDS011;38179;52.756;6.906;2024-03-06T13:40:22;38.10;;;25.60;;
52210;SDS011;38179;52.756;6.906;2024-03-06T13:42:47;38.22;;;27.10;;
52210;SDS011;38179;52.756;6.906;2024-03-06T13:45:13;39.35;;;26.58;;
52210;SDS011;38179;52.756;6.906;2024-03-06T13:47:42;40.83;;;27.38;;
52210;SDS011;38179;52.756;6.906;2024-03-06T13:50:09;39.42;;;26.38;;
52210;SDS011;38179;52.756;6.906;2024-03-06T13:52:39;38.60;;;27.08;;
52210;SDS011;38179;52.756;6.906;2024-03-06T13:55:06;36.88;;;26.58;;
52210;SDS011;38179;52.756;6.906;2024-03-06T13:57:33;32.97;;;24.88;;
52210;SDS011;38179;52.756;6.906;2024-03-06T14:02:32;36.05;;;26.35;;
52210;SDS011;38179;52.756;6.906;2024-03-06T14:04:58;36.53;;;25.48;;
52210;SDS011;38179;52.756;6.906;2024-03-06T14:07:24;41.78;;;27.77;;
52210;SDS011;38179;52.756;6.906;2024-03-06T14:09:50;34.42;;;26.52;;
52210;SDS011;38179;52.756;6.906;2024-03-06T14:12:16;38.10;;;27.30;;
52210;SDS011;38179;52.756;6.906;2024-03-06T14:14:42;33.17;;;25.77;;
52210;SDS011;38179;52.756;6.906;2024-03-06T14:17:10;38.03;;;27.90;;
52210;SDS011;38179;52.756;6.906;2024-03-06T14:19:36;38.70;;;25.05;;
52210;SDS011;38179;52.756;6.906;2024-03-06T14:22:02;34.33;;;26.20;;
52210;SDS011;38179;52.756;6.906;2024-03-06T14:24:27;33.30;;;26.15;;
52210;SDS011;38179;52.756;6.906;2024-03-06T14:26:53;36.10;;;26.02;;
52210;SDS011;38179;52.756;6.906;2024-03-06T14:29:19;33.15;;;26.65;;
52210;SDS011;38179;52.756;6.906;2024-03-06T14:31:44;37.03;;;26.52;;
52210;SDS011;38179;52.756;6.906;2024-03-06T14:34:10;35.30;;;25.98;;
52210;SDS011;38179;52.756;6.906;2024-03-06T14:36:35;36.35;;;26.35;;
52210;SDS011;38179;52.756;6.906;2024-03-06T14:39:01;36.40;;;25.50;;
52210;SDS011;38179;52.756;6.906;2024-03-06T14:41:28;34.50;;;26.35;;
52210;SDS011;38179;52.756;6.906;2024-03-06T14:43:53;31.77;;;25.58;;
52210;SDS011;38179;52.756;6.906;2024-03-06T14:46:19;37.20;;;27.05;;
52210;SDS011;38179;52.756;6.906;2024-03-06T14:48:45;39.13;;;26.92;;
52210;SDS011;38179;52.756;6.906;2024-03-06T14:51:11;35.47;;;27.33;;